Time;durP1;ratioP1;P1;durP2;ratioP2;P2;SDS_P1;SDS_P2;PMS_P1;PMS_P2;Temp;Humidity;BMP_temperature;BMP_pressure;BME280_temperature;BME280_humidity;BME280_pressure;Samples;Min_cycle;Max_cycle;Signal;HPM_P1;HPM_P2
2023/03/22 00:02:08;;;;;;;63.70;37.50;;;;;;;6.43;88.17;99000.81;107935;1307;22328;-43
2023/03/22 00:04:33;;;;;;;62.40;36.20;;;;;;;6.42;88.12;98998.44;107910;1307;22279;-41
2023/03/22 00:06:59;;;;;;;65.90;35.80;;;;;;;6.39;88.14;98998.58;107891;1307;22426;-40
2023/03/22 00:09:24;;;;;;;58.20;35.70;;;;;;;6.36;88.28;98998.88;107927;1307;22312;-42
2023/03/22 00:11:50;;;;;;;62.10;35.50;;;;;;;6.31;88.51;98995.41;107921;1307;22421;-42
2023/03/22 00:14:17;;;;;;;67.40;37.90;;;;;;;6.28;88.55;98993.11;107921;1307;22358;-40
2023/03/22 00:16:44;;;;;;;65.30;37.00;;;;;;;6.29;88.46;98993.27;107901;1307;22238;-41
2023/03/22 00:19:10;;;;;;;68.00;37.40;;;;;;;6.28;88.43;98987.90;107926;1307;23334;-41
2023/03/22 00:21:35;;;;;;;63.80;36.90;;;;;;;6.27;88.32;98983.41;107933;1307;22355;-42
2023/03/22 00:24:00;;;;;;;65.80;37.10;;;;;;;6.25;88.46;98981.41;107904;1307;22254;-41
2023/03/22 00:26:26;;;;;;;67.30;36.70;;;;;;;6.23;88.45;98981.67;107916;1307;22259;-42
2023/03/22 00:28:52;;;;;;;60.70;35.70;;;;;;;6.20;88.93;98980.08;107904;1307;22407;-41
2023/03/22 00:31:18;;;;;;;67.40;38.40;;;;;;;6.16;88.95;98979.52;107930;1307;23171;-42
2023/03/22 00:33:44;;;;;;;68.50;37.60;;;;;;;6.11;89.18;98982.67;107950;1307;22574;-42
2023/03/22 00:36:10;;;;;;;69.70;38.30;;;;;;;6.10;89.26;98980.81;107907;1307;23052;-40
2023/03/22 00:38:37;;;;;;;68.30;36.80;;;;;;;6.07;89.58;98976.95;107909;1307;22474;-41
2023/03/22 00:41:11;;;;;;;71.40;39.20;;;;;;;6.02;89.87;98979.75;107924;1307;22273;-42
2023/03/22 00:43:37;;;;;;;67.30;37.70;;;;;;;6.01;89.70;98981.00;107915;1307;22259;-41
2023/03/22 00:46:03;;;;;;;64.30;37.30;;;;;;;5.96;90.14;98980.52;107883;1307;22373;-41
2023/03/22 00:48:29;;;;;;;64.50;36.50;;;;;;;5.94;90.24;98979.71;107926;1307;22514;-41
2023/03/22 00:50:54;;;;;;;72.50;38.40;;;;;;;5.91;90.46;98980.55;107898;1307;22253;-41
2023/03/22 00:53:19;;;;;;;67.30;37.90;;;;;;;5.90;90.29;98980.55;107894;1308;22434;-42
2023/03/22 00:55:45;;;;;;;71.20;38.10;;;;;;;5.86;90.47;98979.70;107920;1307;22587;-42
2023/03/22 00:58:10;;;;;;;63.60;36.50;;;;;;;5.86;90.65;98976.40;107893;1307;22259;-42
2023/03/22 01:00:35;;;;;;;62.20;37.10;;;;;;;5.86;90.59;98975.35;107910;1307;22358;-40
2023/03/22 01:03:03;;;;;;;67.60;38.30;;;;;;;5.85;90.50;98971.76;107898;1297;22325;-41
2023/03/22 01:05:33;;;;;;;64.90;36.40;;;;;;;5.84;90.21;98964.98;107924;1308;22256;-41
2023/03/22 01:08:09;;;;;;;67.40;37.60;;;;;;;5.78;90.94;98965.95;107919;1308;22575;-43
2023/03/22 01:10:38;;;;;;;62.90;36.00;;;;;;;5.76;91.16;98961.15;107929;1307;23011;-42
2023/03/22 01:13:04;;;;;;;64.10;35.30;;;;;;;5.77;90.82;98957.60;107924;1308;22227;-41
2023/03/22 01:15:30;;;;;;;64.20;35.60;;;;;;;5.77;90.72;98953.45;107910;1308;22405;-41
2023/03/22 01:17:55;;;;;;;62.60;34.40;;;;;;;5.77;90.84;98953.60;107928;1307;22370;-40
2023/03/22 01:20:21;;;;;;;58.90;34.50;;;;;;;5.77;90.67;98952.59;107915;1308;22254;-42
2023/03/22 01:22:46;;;;;;;60.40;33.60;;;;;;;5.76;90.63;98956.59;107891;1308;23152;-42
2023/03/22 01:25:11;;;;;;;57.70;34.60;;;;;;;5.75;90.76;98949.00;107910;1308;22467;-45
2023/03/22 01:27:37;;;;;;;63.20;35.00;;;;;;;5.72;91.21;98951.20;107891;1308;22461;-41
2023/03/22 01:30:04;;;;;;;61.50;34.60;;;;;;;5.71;91.28;98951.05;107893;1308;22279;-41
2023/03/22 01:32:29;;;;;;;59.70;34.20;;;;;;;5.71;91.42;98943.08;107917;1307;22244;-41
2023/03/22 01:34:54;;;;;;;63.60;33.50;;;;;;;5.70;91.41;98941.88;107897;1308;22231;-41
2023/03/22 01:37:20;;;;;;;57.40;34.60;;;;;;;5.69;91.36;98937.80;107888;1308;23232;-42
2023/03/22 01:39:46;;;;;;;59.20;34.10;;;;;;;5.62;91.89;98934.94;107932;1308;22493;-41
2023/03/22 01:42:15;;;;;;;65.80;33.60;;;;;;;5.62;91.85;98930.06;107927;1308;22399;-41
2023/03/22 01:44:43;;;;;;;54.10;32.40;;;;;;;5.62;91.93;98927.61;107906;1308;22277;-41
2023/03/22 01:47:10;;;;;;;57.70;33.90;;;;;;;5.64;91.74;98922.50;107928;1308;23112;-41
2023/03/22 01:49:36;;;;;;;62.10;34.40;;;;;;;5.64;91.54;98920.95;107910;1308;22328;-42
2023/03/22 01:52:13;;;;;;;58.90;33.70;;;;;;;5.63;91.61;98919.25;107901;1308;22261;-41
2023/03/22 01:54:43;;;;;;;62.80;33.30;;;;;;;5.61;91.94;98917.26;107899;1308;22914;-41
2023/03/22 01:57:09;;;;;;;58.50;33.60;;;;;;;5.62;91.90;98916.51;107921;1308;22334;-41
2023/03/22 01:59:35;;;;;;;59.70;31.70;;;;;;;5.63;91.88;98914.38;107915;1308;22263;-42
2023/03/22 02:02:01;;;;;;;63.40;33.70;;;;;;;5.65;91.85;98909.94;107882;1308;22254;-41
2023/03/22 02:04:33;;;;;;;52.80;31.10;;;;;;;5.68;91.84;98903.70;107918;1308;22242;-41
2023/03/22 02:07:08;;;;;;;54.90;31.50;;;;;;;5.69;91.93;98897.39;107924;1308;22445;-41
2023/03/22 02:09:41;;;;;;;58.60;32.90;;;;;;;5.70;91.86;98896.15;107914;1307;22413;-41
2023/03/22 02:12:30;;;;;;;53.50;31.40;;;;;;;5.71;91.83;98897.17;107906;1307;22261;-41
2023/03/22 02:15:02;;;;;;;60.50;31.60;;;;;;;5.72;91.86;98895.71;107924;1308;23163;-41
2023/03/22 02:18:05;;;;;;;58.50;32.50;;;;;;;5.71;91.99;98893.66;107941;1307;22292;-41
2023/03/22 02:20:57;;;;;;;53.50;30.90;;;;;;;5.76;91.92;98889.10;107935;1308;22249;-41
2023/03/22 02:23:47;;;;;;;53.10;30.80;;;;;;;5.82;91.93;98892.73;107926;1308;22278;-41
2023/03/22 02:26:45;;;;;;;52.60;28.90;;;;;;;5.87;91.76;98891.11;107946;1308;22586;-41
2023/03/22 02:29:31;;;;;;;51.50;29.60;;;;;;;5.92;91.46;98890.37;107924;1308;22423;-41
2023/03/22 02:32:27;;;;;;;54.40;31.70;;;;;;;5.95;91.21;98884.67;107932;1308;23230;-42
2023/03/22 02:35:25;;;;;;;55.70;31.40;;;;;;;5.93;91.08;98876.27;107917;1307;22244;-41
2023/03/22 02:38:08;;;;;;;53.60;31.70;;;;;;;5.88;91.27;98867.23;107279;1313;22382;-42
2023/03/22 02:43:37;;;;;;;57.90;33.40;;;;;;;5.86;92.03;98867.14;106779;1308;545101;-41
2023/03/22 02:46:32;;;;;;;48.50;28.20;;;;;;;5.84;92.42;98859.58;107200;1316;22995;-41
2023/03/22 02:49:39;;;;;;;50.90;28.80;;;;;;;5.86;92.62;98857.05;107176;1316;22253;-40
2023/03/22 02:52:19;;;;;;;47.30;28.20;;;;;;;5.86;93.01;98857.56;107196;1315;22458;-41
2023/03/22 02:55:09;;;;;;;39.10;25.70;;;;;;;5.91;93.14;98857.69;107196;1316;22503;-41
2023/03/22 02:57:45;;;;;;;45.20;26.60;;;;;;;5.94;92.75;98859.67;107213;1313;151339;-40
2023/03/22 03:00:14;;;;;;;43.80;26.70;;;;;;;5.97;92.71;98855.05;107362;1313;22227;-41
2023/03/22 03:02:45;;;;;;;42.60;27.40;;;;;;;5.98;92.93;98856.05;107380;1313;22301;-41
2023/03/22 03:05:13;;;;;;;46.80;28.00;;;;;;;5.93;93.74;98851.16;107250;1313;22599;-40
2023/03/22 03:07:41;;;;;;;49.40;28.90;;;;;;;5.98;93.70;98846.67;107381;1313;22234;-42
2023/03/22 03:10:08;;;;;;;46.20;27.70;;;;;;;6.02;93.81;98845.25;107349;1313;22262;-41
2023/03/22 03:12:33;;;;;;;43.20;26.90;;;;;;;6.06;94.07;98849.95;107358;1313;23012;-41
2023/03/22 03:14:58;;;;;;;44.20;26.20;;;;;;;6.14;93.67;98858.61;107329;1313;22271;-41
2023/03/22 03:17:33;;;;;;;40.50;26.20;;;;;;;6.24;93.25;98859.78;107339;1313;22263;-42
2023/03/22 03:20:23;;;;;;;44.50;26.20;;;;;;;6.27;93.29;98857.89;107351;1313;23022;-41
2023/03/22 03:23:12;;;;;;;41.60;25.70;;;;;;;6.28;93.21;98855.91;107363;1313;22244;-40
2023/03/22 03:25:45;;;;;;;47.60;28.20;;;;;;;6.33;92.68;98851.90;107350;1313;22416;-41
2023/03/22 03:28:37;;;;;;;43.20;25.50;;;;;;;6.35;92.78;98849.02;107352;1313;23204;-41
2023/03/22 03:31:06;;;;;;;46.50;26.40;;;;;;;6.40;92.70;98844.43;107416;1311;22469;-40
2023/03/22 03:33:35;;;;;;;44.00;25.30;;;;;;;6.43;92.82;98847.27;107514;1311;22447;-41
2023/03/22 03:36:07;;;;;;;39.20;24.40;;;;;;;6.40;93.25;98843.35;107505;1311;22371;-41
2023/03/22 03:38:36;;;;;;;47.00;25.40;;;;;;;6.42;93.63;98843.82;107494;1311;23100;-42
2023/03/22 03:41:13;;;;;;;40.80;24.00;;;;;;;6.48;93.34;98845.98;107499;1311;23378;-43
2023/03/22 03:43:40;;;;;;;35.70;23.80;;;;;;;6.51;93.52;98841.84;107394;1312;22454;-42
2023/03/22 03:46:06;;;;;;;37.40;24.10;;;;;;;6.55;93.34;98845.99;107421;1312;22228;-42
2023/03/22 03:48:34;;;;;;;40.60;25.00;;;;;;;6.56;93.56;98851.22;107507;1308;22296;-41
2023/03/22 03:51:01;;;;;;;40.90;24.40;;;;;;;6.61;93.15;98849.25;107500;1311;22333;-41
2023/03/22 03:53:26;;;;;;;45.90;27.10;;;;;;;6.63;93.13;98848.46;107486;1307;22422;-42
2023/03/22 03:55:52;;;;;;;38.60;24.20;;;;;;;6.67;92.83;98851.55;107483;1311;22437;-42
2023/03/22 03:58:17;;;;;;;45.00;26.10;;;;;;;6.68;93.23;98850.29;107473;1311;23293;-42
2023/03/22 04:00:45;;;;;;;41.50;24.60;;;;;;;6.68;93.39;98848.20;107473;1311;23093;-42
2023/03/22 04:03:11;;;;;;;44.50;24.60;;;;;;;6.72;93.14;98848.38;107483;1311;22947;-42
2023/03/22 04:05:37;;;;;;;42.80;27.10;;;;;;;6.74;93.53;98849.31;107499;1311;22571;-41
2023/03/22 04:08:02;;;;;;;47.20;28.00;;;;;;;6.78;93.59;98847.59;107472;1311;22276;-42
2023/03/22 04:10:27;;;;;;;41.50;26.20;;;;;;;6.81;93.36;98842.20;107469;1311;23351;-41
2023/03/22 04:12:53;;;;;;;40.90;26.50;;;;;;;6.83;93.38;98840.53;107467;1311;22945;-42
2023/03/22 04:15:18;;;;;;;41.90;26.20;;;;;;;6.82;93.70;98837.78;107449;1311;22450;-42
2023/03/22 04:17:45;;;;;;;45.30;26.10;;;;;;;6.87;93.44;98841.58;107490;1311;22436;-42
2023/03/22 04:20:12;;;;;;;42.50;26.00;;;;;;;6.86;93.85;98846.34;107470;1311;22427;-42
2023/03/22 04:22:38;;;;;;;42.20;25.60;;;;;;;6.88;93.83;98845.89;107471;1311;22965;-42
2023/03/22 04:25:10;;;;;;;42.20;26.30;;;;;;;6.92;93.64;98844.80;107466;1311;22469;-42
2023/03/22 04:27:36;;;;;;;54.60;31.10;;;;;;;6.96;93.75;98845.52;107478;1311;22291;-42
2023/03/22 04:30:03;;;;;;;47.50;27.10;;;;;;;7.02;93.44;98842.61;107452;1311;22534;-42
2023/03/22 04:32:29;;;;;;;44.30;26.50;;;;;;;7.04;93.30;98845.27;107483;1311;22353;-41
2023/03/22 04:34:54;;;;;;;45.90;27.20;;;;;;;7.06;93.51;98843.28;107456;1311;23223;-41
2023/03/22 04:37:23;;;;;;;43.90;26.50;;;;;;;7.08;93.49;98835.15;107462;1311;22326;-41
2023/03/22 04:39:48;;;;;;;47.00;27.20;;;;;;;7.12;93.45;98837.27;107471;1311;22446;-41
2023/03/22 04:42:14;;;;;;;45.80;27.00;;;;;;;7.12;93.59;98838.81;107453;1311;23207;-42
2023/03/22 04:44:39;;;;;;;41.90;26.70;;;;;;;7.15;93.50;98841.63;107487;1311;22272;-41
2023/03/22 04:47:04;;;;;;;42.50;27.20;;;;;;;7.21;93.07;98843.05;107474;1311;22363;-41
2023/03/22 04:49:30;;;;;;;45.90;26.50;;;;;;;7.25;93.24;98843.23;107477;1311;22271;-42
2023/03/22 04:51:56;;;;;;;47.80;28.90;;;;;;;7.24;93.22;98841.35;107486;1311;22394;-41
2023/03/22 04:54:22;;;;;;;45.10;27.20;;;;;;;7.25;93.12;98841.48;107450;1311;23017;-42
2023/03/22 04:56:48;;;;;;;46.40;26.90;;;;;;;7.28;93.10;98838.90;107489;1311;23040;-41
2023/03/22 04:59:16;;;;;;;46.70;26.60;;;;;;;7.37;92.75;98837.27;107463;1311;22240;-41
2023/03/22 05:01:42;;;;;;;38.50;26.40;;;;;;;7.40;92.62;98837.45;107473;1311;22230;-41
2023/03/22 05:04:07;;;;;;;44.30;26.00;;;;;;;7.43;92.43;98837.83;107474;1311;22264;-41
2023/03/22 05:06:33;;;;;;;43.30;26.60;;;;;;;7.44;92.26;98836.02;107602;1310;22351;-41
2023/03/22 05:08:59;;;;;;;44.20;27.40;;;;;;;7.43;92.59;98839.03;107649;1310;22962;-42
2023/03/22 05:11:26;;;;;;;40.20;26.60;;;;;;;7.44;92.66;98839.68;107650;1310;22429;-42
2023/03/22 05:13:53;;;;;;;54.90;29.20;;;;;;;7.46;92.57;98839.22;107623;1310;23004;-42
2023/03/22 05:16:19;;;;;;;44.90;27.40;;;;;;;7.51;92.36;98837.96;107640;1310;22502;-42
2023/03/22 05:18:44;;;;;;;50.00;27.10;;;;;;;7.53;92.28;98835.61;107641;1310;23049;-42
2023/03/22 05:21:20;;;;;;;46.60;28.70;;;;;;;7.54;92.31;98840.07;106541;1310;22582;-39
2023/03/22 05:23:46;;;;;;;46.80;26.80;;;;;;;7.58;92.11;98838.84;107604;1310;23297;-42
2023/03/22 05:26:14;;;;;;;45.60;26.80;;;;;;;7.60;92.05;98839.39;107642;1310;22298;-42
2023/03/22 05:28:40;;;;;;;44.80;27.90;;;;;;;7.61;92.13;98840.20;107645;1310;22233;-43
2023/03/22 05:31:07;;;;;;;45.10;28.20;;;;;;;7.60;92.20;98843.77;107652;1310;23239;-42
2023/03/22 05:33:33;;;;;;;43.60;27.20;;;;;;;7.64;92.18;98848.61;107633;1310;22615;-42
2023/03/22 05:35:59;;;;;;;46.90;26.90;;;;;;;7.69;91.89;98844.89;107628;1310;22241;-43
2023/03/22 05:38:24;;;;;;;48.80;27.90;;;;;;;7.74;91.73;98842.73;107635;1310;23093;-43
2023/03/22 05:40:50;;;;;;;48.10;28.10;;;;;;;7.78;91.58;98839.53;107620;1310;22221;-41
2023/03/22 05:43:15;;;;;;;47.90;28.30;;;;;;;7.76;91.72;98836.71;107641;1310;23852;-41
2023/03/22 05:45:41;;;;;;;57.60;29.90;;;;;;;7.81;91.57;98832.61;107614;1310;22303;-41
2023/03/22 05:48:06;;;;;;;73.60;32.60;;;;;;;7.85;91.42;98831.33;107646;1310;22315;-41
2023/03/22 05:50:32;;;;;;;56.40;32.10;;;;;;;7.92;91.25;98837.78;107639;1310;22432;-41
2023/03/22 05:52:58;;;;;;;56.10;31.00;;;;;;;7.97;90.98;98835.64;107657;1310;22915;-41
2023/03/22 05:55:23;;;;;;;63.30;34.60;;;;;;;7.99;90.88;98836.56;107652;1310;22203;-40
2023/03/22 05:57:51;;;;;;;58.50;35.70;;;;;;;8.03;90.78;98839.33;107642;1310;22313;-41
2023/03/22 06:00:17;;;;;;;55.60;35.30;;;;;;;8.05;90.83;98842.37;107648;1310;22926;-41
2023/03/22 06:02:45;;;;;;;59.00;35.60;;;;;;;8.06;90.73;98843.88;107631;1310;22236;-41
2023/03/22 06:05:12;;;;;;;56.90;35.90;;;;;;;8.08;90.68;98844.14;107628;1310;22257;-40
2023/03/22 06:07:39;;;;;;;61.80;37.70;;;;;;;8.08;90.69;98844.64;107635;1310;22736;-41
2023/03/22 06:10:06;;;;;;;62.40;37.60;;;;;;;8.13;90.56;98848.06;107472;1310;22661;-41
2023/03/22 06:12:32;;;;;;;65.30;38.50;;;;;;;8.15;90.63;98848.30;107631;1310;23084;-41
2023/03/22 06:14:57;;;;;;;68.70;42.10;;;;;;;8.18;90.60;98850.75;107626;1310;22327;-41
2023/03/22 06:17:23;;;;;;;66.90;36.70;;;;;;;8.19;90.65;98854.20;107661;1310;22401;-42
2023/03/22 06:19:49;;;;;;;66.40;40.90;;;;;;;8.19;90.67;98852.95;107640;1310;22934;-42
2023/03/22 06:22:17;;;;;;;72.50;41.30;;;;;;;8.14;90.90;98850.60;107642;1310;22241;-42
2023/03/22 06:24:45;;;;;;;67.10;38.70;;;;;;;8.18;90.82;98849.55;107217;1303;22881;-41
2023/03/22 06:27:11;;;;;;;63.80;38.10;;;;;;;8.21;90.70;98850.62;107356;1310;22496;-42
2023/03/22 06:29:37;;;;;;;72.10;38.20;;;;;;;8.19;90.79;98849.99;107488;1310;22324;-41
2023/03/22 06:32:03;;;;;;;64.10;35.80;;;;;;;8.24;90.73;98850.42;107339;1310;22315;-41
2023/03/22 06:34:28;;;;;;;61.60;37.30;;;;;;;8.31;90.48;98855.48;107629;1310;22290;-41
2023/03/22 06:36:54;;;;;;;56.90;35.20;;;;;;;8.38;90.24;98855.45;107637;1310;22976;-42
2023/03/22 06:39:20;;;;;;;69.80;36.90;;;;;;;8.40;90.07;98852.75;107648;1310;22964;-42
2023/03/22 06:41:46;;;;;;;63.50;35.60;;;;;;;8.39;89.95;98851.74;107605;1310;22617;-43
2023/03/22 06:44:11;;;;;;;61.90;36.70;;;;;;;8.43;89.91;98845.94;107625;1310;22860;-42
2023/03/22 06:46:37;;;;;;;67.10;36.60;;;;;;;8.44;89.94;98840.84;107631;1310;22377;-42
2023/03/22 06:49:02;;;;;;;60.10;37.30;;;;;;;8.47;89.86;98839.46;107671;1310;23581;-41
2023/03/22 06:51:28;;;;;;;69.10;38.00;;;;;;;8.49;89.73;98839.88;107671;1310;22262;-41
2023/03/22 06:53:53;;;;;;;64.50;37.50;;;;;;;8.51;89.69;98837.00;107622;1310;22242;-41
2023/03/22 06:56:18;;;;;;;64.40;35.80;;;;;;;8.57;89.57;98840.36;107632;1310;22919;-41
2023/03/22 06:58:44;;;;;;;75.00;37.20;;;;;;;8.60;89.43;98842.30;107634;1310;23130;-41
2023/03/22 07:01:09;;;;;;;66.50;37.60;;;;;;;8.62;89.18;98842.31;107666;1310;22223;-42
2023/03/22 07:03:35;;;;;;;64.70;38.20;;;;;;;8.66;88.97;98843.70;107640;1310;22968;-42
2023/03/22 07:06:09;;;;;;;63.70;35.40;;;;;;;8.69;89.06;98842.32;107604;1310;22231;-42
2023/03/22 07:08:36;;;;;;;65.30;37.90;;;;;;;8.71;88.97;98841.48;107633;1310;23064;-42
2023/03/22 07:11:02;;;;;;;66.20;37.30;;;;;;;8.71;89.15;98840.13;107633;1310;23209;-42
2023/03/22 07:13:27;;;;;;;54.80;33.50;;;;;;;8.70;89.24;98840.85;107629;1310;22233;-43
2023/03/22 07:15:57;;;;;;;58.80;35.00;;;;;;;8.77;88.99;98842.74;107625;1310;23140;-42
2023/03/22 07:18:23;;;;;;;59.80;33.40;;;;;;;8.79;89.03;98837.02;107659;1310;22285;-42
2023/03/22 07:20:48;;;;;;;61.50;34.10;;;;;;;8.81;88.67;98831.48;107642;1310;22363;-42
2023/03/22 07:23:15;;;;;;;54.10;33.20;;;;;;;8.84;88.68;98827.50;107637;1310;22212;-42
2023/03/22 07:25:41;;;;;;;53.50;33.20;;;;;;;8.88;88.62;98817.66;107643;1310;22292;-42
2023/03/22 07:28:06;;;;;;;62.10;33.80;;;;;;;8.93;88.72;98813.75;107659;1310;22205;-42
2023/03/22 07:30:36;;;;;;;55.30;32.30;;;;;;;8.96;88.88;98812.46;107647;1310;22238;-43
2023/03/22 07:33:02;;;;;;;54.60;31.50;;;;;;;9.06;88.81;98818.40;107649;1310;22962;-43
2023/03/22 07:35:27;;;;;;;54.70;31.80;;;;;;;9.14;88.17;98804.98;107653;1310;23027;-42
2023/03/22 07:37:53;;;;;;;52.80;30.80;;;;;;;9.22;87.71;98799.48;107635;1310;22262;-42
2023/03/22 07:40:19;;;;;;;49.70;32.00;;;;;;;9.29;87.82;98793.11;107652;1310;22197;-42
2023/03/22 07:42:47;;;;;;;56.10;31.80;;;;;;;9.48;88.00;98795.90;107651;1310;22225;-42
2023/03/22 07:45:12;;;;;;;51.50;31.80;;;;;;;9.59;86.93;98797.30;107653;1310;22973;-43
2023/03/22 07:47:37;;;;;;;50.70;30.40;;;;;;;9.73;87.23;98798.41;107646;1310;22245;-42
2023/03/22 07:50:03;;;;;;;53.10;31.40;;;;;;;9.85;86.68;98802.45;107648;1310;22350;-42
2023/03/22 07:52:28;;;;;;;52.40;31.00;;;;;;;9.94;85.98;98807.65;107628;1310;22303;-41
2023/03/22 07:54:54;;;;;;;49.80;30.20;;;;;;;10.06;85.48;98811.52;107613;1310;23225;-42
2023/03/22 07:57:19;;;;;;;48.00;30.60;;;;;;;10.18;85.03;98810.78;107621;1310;22516;-42
2023/03/22 07:59:45;;;;;;;47.70;28.80;;;;;;;10.26;84.88;98809.05;107654;1310;23147;-42
2023/03/22 08:02:10;;;;;;;44.60;29.10;;;;;;;10.31;84.63;98807.34;107625;1310;22235;-41
2023/03/22 08:04:36;;;;;;;51.00;29.20;;;;;;;10.34;84.38;98804.39;107654;1310;23015;-43
2023/03/22 08:07:01;;;;;;;53.40;30.20;;;;;;;10.25;84.20;98804.90;107661;1310;23075;-42
2023/03/22 08:09:27;;;;;;;49.20;29.60;;;;;;;10.21;84.70;98807.98;107629;1310;22387;-43
2023/03/22 08:11:52;;;;;;;55.10;31.20;;;;;;;10.18;84.42;98807.27;107652;1310;22296;-42
2023/03/22 08:14:17;;;;;;;48.70;29.50;;;;;;;10.13;84.24;98810.18;107621;1310;22285;-42
2023/03/22 08:16:43;;;;;;;47.70;28.70;;;;;;;10.18;84.57;98811.29;107639;1310;23174;-42
2023/03/22 08:19:09;;;;;;;48.90;29.30;;;;;;;10.09;84.10;98810.27;107631;1310;22342;-42
2023/03/22 08:21:35;;;;;;;48.90;29.40;;;;;;;10.06;84.38;98805.37;107655;1310;22412;-42
2023/03/22 08:24:00;;;;;;;48.50;30.00;;;;;;;10.06;84.55;98804.51;107655;1310;22220;-43
2023/03/22 08:26:26;;;;;;;59.20;35.70;;;;;;;10.13;84.48;98806.18;107647;1310;22231;-44
2023/03/22 08:28:52;;;;;;;58.80;31.30;;;;;;;10.22;84.56;98806.16;107639;1310;22462;-42
2023/03/22 08:31:18;;;;;;;51.80;30.70;;;;;;;10.36;85.00;98806.36;107629;1310;22926;-43
2023/03/22 08:33:44;;;;;;;49.70;31.30;;;;;;;10.49;84.60;98803.80;107644;1310;22247;-43
2023/03/22 08:36:13;;;;;;;49.20;31.90;;;;;;;10.63;84.13;98804.17;107653;1310;22399;-41
2023/03/22 08:38:38;;;;;;;48.20;30.00;;;;;;;10.65;83.26;98810.16;107640;1310;22238;-43
2023/03/22 08:41:04;;;;;;;48.90;29.20;;;;;;;10.79;83.56;98812.44;107648;1310;22299;-43
2023/03/22 08:43:29;;;;;;;47.50;29.10;;;;;;;10.88;83.19;98814.51;107636;1310;23208;-43
2023/03/22 08:45:55;;;;;;;62.90;31.60;;;;;;;11.00;83.14;98813.88;107642;1310;22232;-42
2023/03/22 08:48:21;;;;;;;51.30;29.10;;;;;;;11.07;82.55;98817.16;107645;1310;22262;-43
2023/03/22 08:50:46;;;;;;;55.60;29.70;;;;;;;11.16;82.47;98819.88;107645;1310;22294;-43
2023/03/22 08:53:12;;;;;;;53.10;29.50;;;;;;;11.22;81.84;98815.84;107669;1310;22236;-43
2023/03/22 08:55:38;;;;;;;50.20;29.80;;;;;;;11.21;81.28;98809.18;107638;1310;22235;-43
2023/03/22 08:58:05;;;;;;;51.40;30.50;;;;;;;11.18;81.48;98804.32;107654;1310;22175;-43
2023/03/22 09:00:30;;;;;;;57.10;29.90;;;;;;;11.24;81.36;98797.65;107673;1309;22322;-43
2023/03/22 09:02:56;;;;;;;55.90;31.80;;;;;;;11.29;81.37;98795.14;107674;1310;22240;-43
2023/03/22 09:05:21;;;;;;;52.60;30.60;;;;;;;11.44;81.46;98791.04;107653;1310;22260;-44
2023/03/22 09:07:51;;;;;;;66.40;31.10;;;;;;;11.58;80.85;98789.20;107654;1310;22458;-44
2023/03/22 09:10:16;;;;;;;56.50;30.70;;;;;;;11.63;80.17;98786.77;107658;1310;22390;-43
2023/03/22 09:12:42;;;;;;;53.50;30.10;;;;;;;11.77;79.91;98786.52;107657;1310;22363;-44
2023/03/22 09:15:07;;;;;;;48.60;30.10;;;;;;;11.95;80.15;98784.25;107655;1310;22218;-43
2023/03/22 09:17:34;;;;;;;51.40;28.70;;;;;;;12.03;79.70;98784.23;107657;1310;22976;-43
2023/03/22 09:19:59;;;;;;;50.40;26.40;;;;;;;12.11;79.89;98784.56;107646;1310;22255;-42
2023/03/22 09:22:25;;;;;;;49.10;27.90;;;;;;;12.19;79.76;98776.28;107640;1310;22275;-41
2023/03/22 09:24:54;;;;;;;50.60;28.70;;;;;;;12.27;78.83;98776.92;107668;1310;22236;-41
2023/03/22 09:27:20;;;;;;;56.20;27.70;;;;;;;12.48;79.22;98776.36;107661;1310;22469;-40
2023/03/22 09:29:45;;;;;;;45.90;25.80;;;;;;;12.63;77.95;98778.79;107580;1310;22250;-39
2023/03/22 09:32:11;;;;;;;48.00;27.60;;;;;;;12.76;77.35;98778.40;107654;1310;22288;-40
2023/03/22 09:34:36;;;;;;;45.40;25.80;;;;;;;12.87;76.86;98779.35;107599;1310;22545;-40
2023/03/22 09:37:02;;;;;;;47.50;24.90;;;;;;;12.83;76.84;98780.86;107666;1310;24242;-39
2023/03/22 09:39:29;;;;;;;41.80;24.00;;;;;;;12.83;77.38;98778.54;107648;1310;23468;-39
2023/03/22 09:41:59;;;;;;;40.60;25.50;;;;;;;12.76;77.25;98775.78;107623;1310;22272;-39
2023/03/22 09:44:39;;;;;;;41.00;24.60;;;;;;;12.69;77.41;98778.16;107490;1311;22881;-39
2023/03/22 09:47:12;;;;;;;50.30;25.20;;;;;;;12.63;77.28;98776.98;107516;1311;22268;-42
2023/03/22 09:49:41;;;;;;;46.60;25.50;;;;;;;12.54;77.46;98777.50;107520;1311;22415;-40
2023/03/22 09:52:12;;;;;;;43.90;25.80;;;;;;;12.48;77.67;98774.95;107499;1311;22247;-43
2023/03/22 09:54:40;;;;;;;52.40;27.50;;;;;;;12.47;77.65;98775.55;107487;1311;22256;-45
2023/03/22 09:57:20;;;;;;;42.30;23.90;;;;;;;12.40;77.68;98773.95;107482;1308;23129;-43
2023/03/22 09:59:57;;;;;;;43.60;25.00;;;;;;;12.31;77.90;98774.56;107499;1304;22459;-43
2023/03/22 10:02:38;;;;;;;45.00;26.30;;;;;;;12.18;78.11;98778.08;107520;1311;22175;-43
2023/03/22 10:05:09;;;;;;;46.30;24.80;;;;;;;12.12;78.44;98775.39;107277;1295;22371;-44
2023/03/22 10:07:59;;;;;;;49.40;27.90;;;;;;;12.07;78.79;98769.92;107335;1297;22369;-44
2023/03/22 10:10:25;;;;;;;44.00;25.20;;;;;;;12.12;79.21;98771.67;107319;1297;22424;-44
2023/03/22 10:13:15;;;;;;;39.20;23.50;;;;;;;12.17;79.28;98778.52;107416;1311;22253;-43
2023/03/22 10:15:44;;;;;;;37.00;23.30;;;;;;;12.25;79.13;98777.63;107507;1311;22206;-43
2023/03/22 10:18:17;;;;;;;43.80;24.20;;;;;;;12.31;79.06;98776.35;107504;1311;23102;-42
2023/03/22 10:20:54;;;;;;;38.40;23.70;;;;;;;12.37;79.02;98773.63;107528;1311;22347;-43
2023/03/22 10:23:28;;;;;;;44.00;24.40;;;;;;;12.49;78.94;98767.11;107516;1311;23072;-44
2023/03/22 10:25:56;;;;;;;40.90;23.50;;;;;;;12.66;78.47;98766.79;107500;1310;22245;-43
2023/03/22 10:28:25;;;;;;;;;;;;;;;12.87;77.43;98763.15;107526;1311;22851;-43
2023/03/22 10:30:56;;;;;;;45.00;23.50;;;;;;;13.16;77.63;98764.73;107417;1312;22934;-42
2023/03/22 10:33:50;;;;;;;39.60;22.90;;;;;;;13.39;77.11;98764.76;107382;1312;22975;-43
2023/03/22 10:36:19;;;;;;;38.90;22.20;;;;;;;13.61;75.96;98761.02;107399;1312;22258;-43
2023/03/22 10:38:48;;;;;;;44.30;23.20;;;;;;;13.71;74.94;98755.72;107416;1312;22240;-43
2023/03/22 10:41:17;;;;;;;38.20;23.10;;;;;;;13.82;74.89;98756.60;107421;1304;23023;-43
2023/03/22 10:43:44;;;;;;;34.50;21.10;;;;;;;13.95;74.65;98758.11;107627;1304;22220;-43
2023/03/22 10:46:19;;;;;;;42.70;23.10;;;;;;;14.06;73.93;98758.80;107612;1310;22247;-43
2023/03/22 10:48:48;;;;;;;37.50;22.50;;;;;;;14.16;73.18;98760.46;107400;1306;22654;-43
2023/03/22 10:51:26;;;;;;;39.60;22.80;;;;;;;14.38;72.75;98760.20;107503;1310;22239;-43
2023/03/22 10:53:54;;;;;;;30.70;20.70;;;;;;;14.65;71.40;98756.86;107623;1297;23116;-43
2023/03/22 10:56:20;;;;;;;33.60;19.90;;;;;;;15.01;71.15;98750.39;107614;1297;22101;-43
2023/03/22 10:58:49;;;;;;;30.30;19.30;;;;;;;15.32;70.07;98742.18;107629;1310;22933;-43
2023/03/22 11:01:24;;;;;;;32.70;17.80;;;;;;;15.34;68.06;98745.71;107623;1303;22275;-43
2023/03/22 11:03:53;;;;;;;25.80;17.00;;;;;;;15.47;67.58;98737.73;107629;1310;22181;-42
2023/03/22 11:06:25;;;;;;;34.90;19.70;;;;;;;15.77;68.92;98735.73;107658;1303;22251;-44
2023/03/22 11:08:53;;;;;;;30.20;17.00;;;;;;;16.55;68.21;98731.98;107639;1304;22238;-44
2023/03/22 11:11:28;;;;;;;28.20;17.50;;;;;;;17.32;64.84;98729.69;107504;1310;22433;-44
2023/03/22 11:14:13;;;;;;;28.00;17.10;;;;;;;17.81;63.12;98725.47;107642;1310;22257;-43
2023/03/22 11:17:04;;;;;;;26.50;17.40;;;;;;;17.62;60.73;98720.69;107666;1310;22498;-43
2023/03/22 11:19:36;;;;;;;24.80;16.80;;;;;;;17.70;62.78;98720.48;107433;1304;23395;-43
2023/03/22 11:22:05;;;;;;;16.10;13.60;;;;;;;17.68;61.85;98719.39;107610;1303;23371;-43
2023/03/22 11:24:32;;;;;;;18.60;13.30;;;;;;;17.34;59.86;98717.61;107622;1310;22287;-46
2023/03/22 11:27:02;;;;;;;;;;;;;;;17.33;60.13;98714.31;107637;1310;23111;-45